createdAt,value
2023-03-12T00:01:35.196Z,4.42
2023-03-12T00:06:38.989Z,4.38
2023-03-12T00:11:44.112Z,4.32
2023-03-12T00:16:47.935Z,4.27
2023-03-12T00:21:51.642Z,4.34
2023-03-12T00:26:56.717Z,4.34
2023-03-12T00:32:00.590Z,4.29
2023-03-12T00:37:04.366Z,4.29
2023-03-12T00:42:09.497Z,4.23
2023-03-12T00:47:14.430Z,4.30
2023-03-12T00:52:18.282Z,4.19
2023-03-12T00:57:23.517Z,4.24
2023-03-12T01:02:27.524Z,4.19
2023-03-12T01:07:32.775Z,4.17
2023-03-12T01:12:37.904Z,4.12
2023-03-12T01:17:41.626Z,4.09
2023-03-12T01:22:45.406Z,4.04
2023-03-12T01:27:50.501Z,4.12
2023-03-12T01:32:54.320Z,4.11
2023-03-12T01:37:58.041Z,4.02
2023-03-12T01:43:24.867Z,4.04
2023-03-12T01:48:30.205Z,3.99
2023-03-12T01:53:34.937Z,4.07
2023-03-12T01:58:46.305Z,4.11
2023-03-12T02:03:54.841Z,3.95
2023-03-12T02:09:02.326Z,4.09
2023-03-12T02:14:08.055Z,4.10
2023-03-12T02:19:20.540Z,4.10
2023-03-12T02:24:34.678Z,4.06
2023-03-12T02:29:43.041Z,4.06
2023-03-12T02:34:48.120Z,4.00
2023-03-12T02:39:58.845Z,4.04
2023-03-12T02:45:04.909Z,4.00
2023-03-12T02:50:10.202Z,3.92
2023-03-12T02:55:14.002Z,3.77
2023-03-12T03:00:20.785Z,3.89
2023-03-12T03:05:25.093Z,3.74
2023-03-12T03:10:28.913Z,3.62
2023-03-12T03:15:34.418Z,3.72
2023-03-12T03:20:38.464Z,3.64
2023-03-12T03:25:42.210Z,3.62
2023-03-12T03:30:47.638Z,3.67
2023-03-12T03:35:51.802Z,3.72
2023-03-12T03:40:56.166Z,3.62
2023-03-12T03:46:03.002Z,3.77
2023-03-12T03:51:09.303Z,3.74
2023-03-12T03:56:15.882Z,3.68
2023-03-12T04:01:22.205Z,3.60
2023-03-12T04:06:26.224Z,3.68
2023-03-12T04:11:30.163Z,3.64
2023-03-12T04:16:35.520Z,3.60
2023-03-12T04:21:39.588Z,3.50
2023-03-12T04:26:44.129Z,3.51
2023-03-12T04:31:49.953Z,3.45
2023-03-12T04:36:53.867Z,3.43
2023-03-12T04:41:58.666Z,3.42
2023-03-12T04:47:05.153Z,3.40
2023-03-12T04:52:09.677Z,3.34
2023-03-12T04:57:13.596Z,3.38
2023-03-12T05:02:19.698Z,3.25
2023-03-12T05:07:23.762Z,3.11
2023-03-12T05:12:27.959Z,3.06
2023-03-12T05:17:33.123Z,3.12
2023-03-12T05:22:37.407Z,3.08
2023-03-12T05:27:41.311Z,3.06
2023-03-12T05:32:47.108Z,3.11
2023-03-12T05:37:50.972Z,3.14
2023-03-12T05:42:54.868Z,3.15
2023-03-12T05:48:01.529Z,3.24
2023-03-12T05:53:05.535Z,3.24
2023-03-12T05:58:09.658Z,3.22
2023-03-12T06:03:15.706Z,3.23
2023-03-12T06:08:19.764Z,3.22
2023-03-12T06:13:24.031Z,3.30
2023-03-12T06:18:29.220Z,3.30
2023-03-12T06:23:33.222Z,3.35
2023-03-12T06:28:37.210Z,3.30
2023-03-12T06:33:42.795Z,3.30
2023-03-12T06:38:46.636Z,3.29
2023-03-12T06:43:50.548Z,3.20
2023-03-12T06:48:56.015Z,3.31
2023-03-12T06:54:01.124Z,3.30
2023-03-12T06:59:05.119Z,3.34
2023-03-12T07:04:10.240Z,3.35
2023-03-12T07:09:13.900Z,3.42
2023-03-12T07:14:17.602Z,3.47
2023-03-12T07:19:22.693Z,3.46
2023-03-12T07:24:26.462Z,3.56
2023-03-12T07:29:30.278Z,3.55
2023-03-12T07:34:35.650Z,3.57
2023-03-12T07:39:39.627Z,3.58
2023-03-12T07:44:43.405Z,3.58
2023-03-12T07:49:48.668Z,3.62
2023-03-12T07:54:54.213Z,3.71
2023-03-12T07:59:58.066Z,3.79
2023-03-12T08:05:03.283Z,3.87
2023-03-12T08:10:09.457Z,3.97
2023-03-12T08:15:13.722Z,4.05
2023-03-12T08:20:19.063Z,4.00
2023-03-12T08:25:24.692Z,4.14
2023-03-12T08:30:30.310Z,4.27
2023-03-12T08:35:35.507Z,4.38
2023-03-12T08:40:39.379Z,4.49
2023-03-12T08:45:43.201Z,4.52
2023-03-12T08:50:48.352Z,4.62
2023-03-12T08:55:54.623Z,4.78
2023-03-12T09:00:59.249Z,4.93
2023-03-12T09:06:06.529Z,5.08
2023-03-12T09:11:11.897Z,5.27
2023-03-12T09:16:15.880Z,5.39
2023-03-12T09:21:20.966Z,5.54
2023-03-12T09:26:25.472Z,5.69
2023-03-12T09:31:29.288Z,5.90
2023-03-12T09:36:34.559Z,6.06
2023-03-12T09:41:40.821Z,6.29
2023-03-12T09:46:48.226Z,6.46
2023-03-12T09:51:56.736Z,6.62
2023-03-12T09:57:05.405Z,6.76
2023-03-12T10:02:43.356Z,6.90
2023-03-12T10:07:54.029Z,7.08
2023-03-12T10:13:15.464Z,7.25
2023-03-12T10:18:30.755Z,7.49
2023-03-12T10:23:50.802Z,7.63
2023-03-12T10:28:58.941Z,7.85
2023-03-12T10:34:04.359Z,7.95
2023-03-12T10:39:15.765Z,7.97
2023-03-12T10:44:23.360Z,8.01
2023-03-12T10:49:30.746Z,8.15
2023-03-12T10:54:38.412Z,8.33
2023-03-12T10:59:44.174Z,8.45
2023-03-12T11:04:52.494Z,8.59
2023-03-12T11:10:18.279Z,8.66
2023-03-12T11:15:24.800Z,8.71
2023-03-12T11:20:30.317Z,9.07
2023-03-12T11:25:35.461Z,9.10
2023-03-12T11:30:41.705Z,9.14
2023-03-12T11:35:55.839Z,9.59
2023-03-12T11:41:13.051Z,9.82
2023-03-12T11:46:28.230Z,9.95
2023-03-12T11:51:45.850Z,10.23
2023-03-12T11:56:54.699Z,10.34
2023-03-12T12:02:13.928Z,10.50
2023-03-12T12:07:30.165Z,10.96
2023-03-12T12:12:52.677Z,11.20
2023-03-12T12:18:03.519Z,10.91
2023-03-12T12:23:18.511Z,10.76
2023-03-12T12:28:38.002Z,10.54
2023-03-12T12:33:57.109Z,10.42
2023-03-12T12:39:06.121Z,10.33
2023-03-12T12:44:16.034Z,10.25
2023-03-12T12:49:25.308Z,10.26
2023-03-12T12:54:36.092Z,10.48
2023-03-12T12:59:44.042Z,10.55
2023-03-12T13:04:48.911Z,11.30
2023-03-12T13:09:54.010Z,11.77
2023-03-12T13:15:00.855Z,11.89
2023-03-12T13:20:15.779Z,11.74
2023-03-12T13:25:31.432Z,11.66
2023-03-12T13:30:50.947Z,11.38
2023-03-12T13:36:07.890Z,11.22
2023-03-12T13:41:31.883Z,11.30
2023-03-12T13:46:45.338Z,11.17
2023-03-12T13:52:02.352Z,10.96
2023-03-12T13:57:13.128Z,10.93
2023-03-12T14:02:25.367Z,10.86
2023-03-12T14:07:51.931Z,10.86
2023-03-12T14:13:07.668Z,10.77
2023-03-12T14:18:19.184Z,10.85
2023-03-12T14:23:26.376Z,10.88
2023-03-12T14:28:31.985Z,10.98
2023-03-12T14:33:50.463Z,10.86
2023-03-12T14:39:01.133Z,10.88
2023-03-12T14:44:07.108Z,11.11
2023-03-12T14:49:21.106Z,11.85
2023-03-12T14:54:27.322Z,12.55
2023-03-12T14:59:33.054Z,12.25
2023-03-12T15:04:39.551Z,12.28
2023-03-12T15:09:45.184Z,12.58
2023-03-12T15:14:51.643Z,12.50
2023-03-12T15:19:57.303Z,12.23
2023-03-12T15:25:03.869Z,11.94
2023-03-12T15:30:24.109Z,11.65
2023-03-12T15:35:29.502Z,11.50
2023-03-12T15:40:33.557Z,11.43
2023-03-12T15:45:39.580Z,11.32
2023-03-12T15:50:46.611Z,11.36
2023-03-12T15:55:59.750Z,11.30
2023-03-12T16:01:12.024Z,11.34
2023-03-12T16:06:19.834Z,11.35
2023-03-12T16:11:26.913Z,11.38
2023-03-12T16:16:30.969Z,11.30
2023-03-12T16:21:36.139Z,11.25
2023-03-12T16:26:47.385Z,11.27
2023-03-12T16:31:54.354Z,11.23
2023-03-12T16:37:00.052Z,11.20
2023-03-12T16:42:06.145Z,11.07
2023-03-12T16:47:12.868Z,11.08
2023-03-12T16:52:19.797Z,11.10
2023-03-12T16:57:29.077Z,11.01
2023-03-12T17:02:33.145Z,11.02
2023-03-12T17:07:38.348Z,10.94
2023-03-12T17:12:42.398Z,10.84
2023-03-12T17:17:46.174Z,10.77
2023-03-12T17:22:51.743Z,10.75
2023-03-12T17:27:56.470Z,10.64
2023-03-12T17:33:03.670Z,10.61
2023-03-12T17:38:09.182Z,10.58
2023-03-12T17:43:13.569Z,10.53
2023-03-12T17:48:17.436Z,10.48
2023-03-12T17:53:22.555Z,10.46
2023-03-12T17:58:26.333Z,10.41
2023-03-12T18:03:30.147Z,10.44
2023-03-12T18:08:35.341Z,10.43
2023-03-12T18:13:40.902Z,10.40
2023-03-12T18:18:44.720Z,10.33
2023-03-12T18:23:49.771Z,10.35
2023-03-12T18:28:53.893Z,10.25
2023-03-12T18:33:57.576Z,10.25
2023-03-12T18:39:04.623Z,10.28
2023-03-12T18:44:08.385Z,10.22
2023-03-12T18:49:13.116Z,10.22
2023-03-12T18:54:18.326Z,10.23
2023-03-12T18:59:22.070Z,10.20
2023-03-12T19:04:26.046Z,10.18
2023-03-12T19:09:31.219Z,10.24
2023-03-12T19:14:34.986Z,10.24
2023-03-12T19:19:38.982Z,10.15
2023-03-12T19:24:44.497Z,10.15
2023-03-12T19:29:48.405Z,10.13
2023-03-12T19:34:52.437Z,10.07
2023-03-12T19:39:57.533Z,10.00
2023-03-12T19:45:01.387Z,9.96
2023-03-12T19:50:05.772Z,9.80
2023-03-12T19:55:11.978Z,9.71
2023-03-12T20:00:16.564Z,9.62
2023-03-12T20:05:20.356Z,9.49
2023-03-12T20:10:25.915Z,9.51
2023-03-12T20:15:29.800Z,9.49
2023-03-12T20:20:33.607Z,9.46
2023-03-12T20:25:41.624Z,9.38
2023-03-12T20:30:45.453Z,9.35
2023-03-12T20:35:50.541Z,9.27
2023-03-12T20:40:55.721Z,9.23
2023-03-12T20:45:59.593Z,9.26
2023-03-12T20:51:03.693Z,9.18
2023-03-12T20:56:09.805Z,9.19
2023-03-12T21:01:13.573Z,9.20
2023-03-12T21:06:17.493Z,9.18
2023-03-12T21:11:22.546Z,9.20
2023-03-12T21:16:26.301Z,9.28
2023-03-12T21:21:30.487Z,9.32
2023-03-12T21:26:35.863Z,9.38
2023-03-12T21:31:39.866Z,9.43
2023-03-12T21:36:43.671Z,9.47
2023-03-12T21:41:48.882Z,9.49
2023-03-12T21:46:52.903Z,9.50
2023-03-12T21:51:57.473Z,9.53
2023-03-12T21:57:03.364Z,9.58
2023-03-12T22:02:07.229Z,9.68
2023-03-12T22:07:10.908Z,9.65
2023-03-12T22:12:15.925Z,9.71
2023-03-12T22:17:19.719Z,9.73
2023-03-12T22:22:23.455Z,9.71
2023-03-12T22:27:28.792Z,9.71
2023-03-12T22:32:33.195Z,9.73
2023-03-12T22:37:36.960Z,9.67
2023-03-12T22:42:42.016Z,9.62
2023-03-12T22:47:46.573Z,9.58
2023-03-12T22:52:50.469Z,9.56
2023-03-12T22:57:55.550Z,9.54
2023-03-12T23:02:59.252Z,9.54
2023-03-12T23:08:02.940Z,9.56
2023-03-12T23:13:09.380Z,9.54
2023-03-12T23:18:13.140Z,9.51
2023-03-12T23:23:16.872Z,9.46
2023-03-12T23:28:22.015Z,9.46
2023-03-12T23:33:26.305Z,9.43
2023-03-12T23:38:30.945Z,9.30
2023-03-12T23:43:36.256Z,9.28
2023-03-12T23:48:41.123Z,9.23
2023-03-12T23:53:47.548Z,9.19
2023-03-12T23:58:52.836Z,9.13
